Time;durP1;ratioP1;P1;durP2;ratioP2;P2;SDS_P1;SDS_P2;PMS_P1;PMS_P2;Temp;Humidity;BMP_temperature;BMP_pressure;BME280_temperature;BME280_humidity;BME280_pressure;Samples;Min_cycle;Max_cycle;Signal;HPM_P1;HPM_P2
2022/05/27 00:02:00;;;;;;;14.77;11.25;;;;;;;21.67;66.68;99890.41;5052916;28;20029;-85
2022/05/27 00:04:28;;;;;;;13.85;12.05;;;;;;;21.24;66.83;99827.28;5051415;28;20064;-85
2022/05/27 00:06:53;;;;;;;16.58;12.43;;;;;;;21.33;66.91;99851.06;5052504;28;20111;-86
2022/05/27 00:09:18;;;;;;;14.48;11.98;;;;;;;21.07;66.96;99812.97;5052608;28;20119;-85
2022/05/27 00:11:44;;;;;;;17.48;12.93;;;;;;;21.40;66.94;99876.72;5052610;28;20029;-85
2022/05/27 00:14:10;;;;;;;16.98;13.50;;;;;;;21.57;67.17;99900.97;5051242;28;20482;-85
2022/05/27 00:16:35;;;;;;;15.38;12.85;;;;;;;21.10;66.91;99830.47;5051424;28;20079;-85
2022/05/27 00:19:01;;;;;;;14.07;11.80;;;;;;;21.17;66.97;99829.28;5069804;28;20021;-83
2022/05/27 00:21:26;;;;;;;15.88;12.40;;;;;;;21.38;66.75;99854.66;5073809;28;20033;-83
2022/05/27 00:23:52;;;;;;;18.60;13.18;;;;;;;20.93;66.70;99780.25;5065982;28;20021;-86
2022/05/27 00:26:18;;;;;;;15.15;12.15;;;;;;;20.94;66.75;99787.22;5050913;28;20031;-85
2022/05/27 00:28:43;;;;;;;19.25;11.82;;;;;;;20.97;66.73;99790.50;5052584;28;20025;-85
2022/05/27 00:31:09;;;;;;;17.52;12.30;;;;;;;21.58;66.62;99874.94;5050973;28;20013;-85
2022/05/27 00:33:38;;;;;;;15.52;12.02;;;;;;;21.06;66.90;99797.09;5050522;28;20048;-86
2022/05/27 00:36:08;;;;;;;16.02;12.02;;;;;;;21.10;66.70;99809.00;5052048;28;20100;-85
2022/05/27 00:38:34;;;;;;;17.23;12.53;;;;;;;20.77;66.57;99756.00;5053369;28;20056;-85
2022/05/27 00:41:00;;;;;;;13.85;12.18;;;;;;;21.14;66.71;99828.94;5052584;28;20079;-85
2022/05/27 00:43:25;;;;;;;15.98;12.02;;;;;;;21.15;66.63;99825.19;5053780;28;20029;-85
2022/05/27 00:46:16;;;;;;;16.92;12.80;;;;;;;21.19;66.79;99837.09;5053455;28;20025;-85
2022/05/27 00:48:45;;;;;;;18.30;13.18;;;;;;;21.42;66.71;99863.06;5049271;28;20051;-85
2022/05/27 00:51:18;;;;;;;19.23;12.82;;;;;;;21.35;66.91;99865.06;5052557;28;20029;-85
2022/05/27 00:54:23;;;;;;;14.88;10.88;;;;;;;20.96;66.95;99807.66;5051488;28;20449;-85
2022/05/27 00:57:00;;;;;;;17.33;11.25;;;;;;;21.25;66.65;99871.06;5042252;28;20472;-85
2022/05/27 00:59:50;;;;;;;17.85;12.85;;;;;;;20.88;67.13;99828.44;5051223;28;20056;-85
2022/05/27 01:02:16;;;;;;;13.98;12.00;;;;;;;21.22;67.10;99879.59;5051567;28;20025;-85
2022/05/27 01:04:43;;;;;;;16.20;11.75;;;;;;;21.14;67.17;99890.69;5051702;28;20021;-85
2022/05/27 01:07:09;;;;;;;16.88;11.43;;;;;;;21.01;67.29;99837.28;5051840;28;20104;-85
2022/05/27 01:09:38;;;;;;;19.95;11.52;;;;;;;20.70;67.09;99784.84;5050295;28;20485;-86
2022/05/27 01:12:16;;;;;;;12.88;10.35;;;;;;;21.01;67.12;99843.47;5050204;28;20013;-85
2022/05/27 01:14:56;;;;;;;16.10;11.60;;;;;;;21.30;67.03;99871.16;5051568;28;20020;-85
2022/05/27 01:17:45;;;;;;;20.83;12.75;;;;;;;20.47;66.97;99754.34;5051690;28;20024;-85
2022/05/27 01:20:21;;;;;;;13.63;12.18;;;;;;;20.05;67.01;99680.47;5051348;28;20490;-85
2022/05/27 01:23:05;;;;;;;18.52;12.07;;;;;;;21.28;67.17;99880.53;5050087;28;20025;-85
2022/05/27 01:25:43;;;;;;;16.90;11.57;;;;;;;21.27;67.10;99876.22;5051230;28;20508;-84
2022/05/27 01:28:27;;;;;;;17.30;12.23;;;;;;;21.25;67.26;99873.75;5050060;28;20025;-85
2022/05/27 01:31:26;;;;;;;18.38;12.52;;;;;;;21.28;67.21;99873.28;5051405;28;20028;-85
2022/05/27 01:34:18;;;;;;;16.95;12.05;;;;;;;20.90;67.44;99820.16;5049575;28;20049;-85
2022/05/27 01:37:06;;;;;;;16.20;12.45;;;;;;;21.19;67.39;99861.25;5051123;28;20079;-85
2022/05/27 01:39:34;;;;;;;15.77;12.52;;;;;;;21.18;67.52;99865.00;5049973;28;20033;-85
2022/05/27 01:42:20;;;;;;;15.15;12.35;;;;;;;21.20;67.30;99870.94;5051198;28;20458;-85
2022/05/27 01:45:04;;;;;;;18.05;12.60;;;;;;;20.53;67.22;99771.38;5049732;28;20056;-85
2022/05/27 01:47:33;;;;;;;24.05;14.45;;;;;;;21.25;67.29;99868.38;5049791;28;20020;-85
2022/05/27 01:50:20;;;;;;;17.55;12.90;;;;;;;21.20;67.66;99860.22;5051238;28;20386;-85
2022/05/27 01:53:00;;;;;;;17.98;12.32;;;;;;;21.01;67.42;99831.91;5051541;28;20056;-85
2022/05/27 01:55:32;;;;;;;14.23;12.10;;;;;;;20.96;67.13;99829.94;5050230;28;20099;-85
2022/05/27 01:58:05;;;;;;;13.68;11.93;;;;;;;20.49;67.38;99764.84;5049837;28;20032;-85
2022/05/27 02:00:33;;;;;;;17.10;13.55;;;;;;;20.92;67.70;99829.59;5049647;28;20808;-85
2022/05/27 02:03:09;;;;;;;15.40;12.95;;;;;;;21.22;67.38;99882.25;5049994;28;20031;-85
2022/05/27 02:05:50;;;;;;;16.85;12.77;;;;;;;21.10;67.81;99871.56;5051366;28;20025;-85
2022/05/27 02:08:20;;;;;;;17.38;12.55;;;;;;;21.14;67.71;99878.09;5051104;28;20505;-85
2022/05/27 02:10:54;;;;;;;15.52;11.75;;;;;;;21.11;67.81;99875.06;5050157;28;20029;-85
2022/05/27 02:14:01;;;;;;;17.02;11.70;;;;;;;21.06;67.85;99874.97;5053302;28;20029;-85
2022/05/27 02:16:40;;;;;;;15.35;11.82;;;;;;;20.77;67.76;99840.00;5013166;28;20107;-85
2022/05/27 02:19:24;;;;;;;14.30;11.48;;;;;;;20.93;67.47;99882.25;5013038;28;20049;-85
2022/05/27 02:21:54;;;;;;;15.85;12.80;;;;;;;20.41;67.62;99816.16;5050527;28;20041;-85
2022/05/27 02:24:36;;;;;;;15.18;11.18;;;;;;;20.16;67.65;99803.81;5054997;28;20539;-86
2022/05/27 02:27:09;;;;;;;15.13;11.85;;;;;;;20.70;67.37;99881.44;5070226;28;20033;-85
2022/05/27 02:29:37;;;;;;;19.08;12.25;;;;;;;20.03;66.98;99790.63;5053291;28;20035;-86
2022/05/27 02:32:08;;;;;;;16.58;10.73;;;;;;;19.97;66.78;99778.97;5053182;28;20406;-85
2022/05/27 02:37:32;;;;;;;13.43;11.23;;;;;;;20.36;66.72;99851.72;5054596;28;20040;-85
2022/05/27 02:40:01;;;;;;;18.33;11.40;;;;;;;20.16;66.62;99822.56;5054446;28;20126;-86
2022/05/27 02:42:42;;;;;;;14.98;10.98;;;;;;;20.60;66.57;99890.91;5054493;28;20032;-85
2022/05/27 02:45:44;;;;;;;16.10;11.00;;;;;;;20.63;66.62;99892.31;5054434;28;20025;-85
2022/05/27 02:48:37;;;;;;;14.88;11.50;;;;;;;20.62;66.83;99902.22;5053060;28;20026;-85
2022/05/27 02:51:23;;;;;;;15.77;11.63;;;;;;;20.39;66.61;99867.38;5054360;28;20421;-85
2022/05/27 02:54:03;;;;;;;16.58;11.15;;;;;;;20.23;66.59;99836.69;5053833;28;20048;-85
2022/05/27 02:57:07;;;;;;;15.25;11.30;;;;;;;20.10;66.32;99809.28;5052751;28;20028;-86
2022/05/27 02:59:35;;;;;;;13.10;10.77;;;;;;;20.58;66.27;99894.88;5054235;28;20029;-85
2022/05/27 03:02:06;;;;;;;14.18;12.15;;;;;;;20.56;66.34;99894.28;5052940;28;20498;-85
2022/05/27 03:04:32;;;;;;;13.20;10.75;;;;;;;20.47;66.31;99872.38;5054216;28;20079;-86
2022/05/27 03:07:10;;;;;;;19.35;11.95;;;;;;;20.70;66.15;99902.91;5053937;28;20036;-85
2022/05/27 03:09:56;;;;;;;16.92;11.48;;;;;;;20.66;66.26;99907.94;5052306;28;20081;-85
2022/05/27 03:13:00;;;;;;;15.90;11.65;;;;;;;20.63;66.26;99900.34;5052211;28;20103;-85
2022/05/27 03:15:36;;;;;;;19.85;11.68;;;;;;;20.59;66.67;99905.38;5041877;28;20033;-85
2022/05/27 03:18:08;;;;;;;15.90;10.68;;;;;;;20.60;66.57;99898.13;5053709;28;20108;-85
2022/05/27 03:20:58;;;;;;;12.40;11.02;;;;;;;20.30;66.63;99856.13;5053461;28;20031;-85
2022/05/27 03:23:35;;;;;;;15.80;12.13;;;;;;;20.61;66.73;99899.75;5067791;28;20055;-85
2022/05/27 03:26:32;;;;;;;13.18;11.70;;;;;;;20.06;66.77;99825.00;5053308;28;20051;-85
2022/05/27 03:29:01;;;;;;;16.70;11.70;;;;;;;20.57;66.69;99904.78;5053347;28;20035;-85
2022/05/27 03:31:43;;;;;;;18.23;12.00;;;;;;;20.20;66.66;99853.22;5053463;28;20401;-85
2022/05/27 03:34:14;;;;;;;17.83;11.35;;;;;;;19.91;66.51;99813.91;5052189;28;20446;-85
2022/05/27 03:36:52;;;;;;;15.20;11.35;;;;;;;19.62;66.37;99759.38;5053647;28;20024;-85
2022/05/27 03:39:29;;;;;;;18.30;12.70;;;;;;;19.97;66.54;99823.72;5053432;28;20020;-85
2022/05/27 03:42:04;;;;;;;15.85;11.38;;;;;;;20.54;66.49;99901.75;5052947;28;20493;-85
2022/05/27 03:44:30;;;;;;;15.70;11.90;;;;;;;20.24;66.68;99875.84;5053074;28;20098;-85
2022/05/27 03:46:57;;;;;;;17.75;12.15;;;;;;;19.90;66.80;99812.28;5053062;28;20090;-85
2022/05/27 03:49:23;;;;;;;18.65;11.80;;;;;;;20.55;66.36;99912.25;5053463;28;20020;-85
2022/05/27 03:52:16;;;;;;;16.63;12.27;;;;;;;20.59;66.32;99910.72;5051911;28;20021;-85
2022/05/27 03:54:41;;;;;;;19.33;12.27;;;;;;;20.33;66.30;99880.84;5052939;28;20032;-85
2022/05/27 03:57:07;;;;;;;19.27;12.90;;;;;;;20.08;65.92;99820.25;5053005;28;20031;-85
2022/05/27 03:59:32;;;;;;;19.45;11.98;;;;;;;20.12;65.51;99825.94;5068878;28;20025;-85
2022/05/27 04:01:58;;;;;;;20.35;12.05;;;;;;;20.68;65.68;99923.78;5053053;28;20021;-85
2022/05/27 04:04:26;;;;;;;18.00;12.23;;;;;;;20.23;65.37;99839.34;5052667;28;20035;-85
2022/05/27 04:06:52;;;;;;;20.52;12.15;;;;;;;20.05;65.50;99809.97;5051336;28;20033;-85
2022/05/27 04:09:20;;;;;;;16.85;11.52;;;;;;;20.71;65.36;99913.41;5051196;28;20031;-85
2022/05/27 04:11:46;;;;;;;16.42;12.40;;;;;;;20.74;65.08;99906.75;5051110;28;20025;-85
2022/05/27 04:14:12;;;;;;;20.75;12.43;;;;;;;20.57;64.99;99895.91;5050987;28;20035;-85
2022/05/27 04:16:38;;;;;;;18.02;12.82;;;;;;;20.79;64.93;99910.34;5050921;28;20044;-85
2022/05/27 04:19:04;;;;;;;19.85;12.23;;;;;;;20.17;64.77;99821.53;5052275;28;20103;-85
2022/05/27 04:21:30;;;;;;;16.67;12.38;;;;;;;20.86;65.16;99915.63;5067421;28;20409;-85
2022/05/27 04:23:56;;;;;;;20.02;12.20;;;;;;;19.87;64.83;99786.75;5067616;28;20116;-85
2022/05/27 04:26:22;;;;;;;18.60;12.77;;;;;;;20.97;64.76;99916.66;5052132;28;20033;-85
2022/05/27 04:28:47;;;;;;;16.77;12.40;;;;;;;20.34;64.64;99820.81;5052320;28;20489;-85
2022/05/27 04:31:13;;;;;;;21.20;13.43;;;;;;;20.56;64.81;99835.28;5052342;28;20079;-85
2022/05/27 04:33:39;;;;;;;19.15;13.35;;;;;;;20.29;64.65;99783.97;5050763;28;20029;-85
2022/05/27 04:36:06;;;;;;;14.63;12.63;;;;;;;21.10;64.78;99913.72;5051622;28;20091;-86
2022/05/27 04:38:33;;;;;;;19.27;12.30;;;;;;;20.77;64.62;99848.06;5052237;28;20036;-85
2022/05/27 04:40:58;;;;;;;19.02;12.98;;;;;;;20.89;64.93;99864.16;5051972;28;20029;-85
2022/05/27 04:43:24;;;;;;;21.05;12.55;;;;;;;21.08;65.13;99900.53;5052008;28;20512;-85
2022/05/27 04:45:49;;;;;;;14.32;12.07;;;;;;;20.62;64.85;99829.78;5051808;28;20036;-85
2022/05/27 04:48:17;;;;;;;15.15;13.00;;;;;;;21.22;64.76;99912.66;5067399;28;20029;-85
2022/05/27 04:50:42;;;;;;;22.67;13.20;;;;;;;20.47;64.99;99808.00;5051861;28;20024;-86
2022/05/27 04:53:09;;;;;;;16.17;12.15;;;;;;;20.53;64.94;99839.25;5051747;28;20056;-86
2022/05/27 04:55:36;;;;;;;19.83;13.20;;;;;;;21.08;64.89;99876.34;5052045;28;20511;-85
2022/05/27 04:58:02;;;;;;;15.25;13.57;;;;;;;21.01;65.17;99866.81;5051921;28;20104;-85
2022/05/27 05:00:31;;;;;;;22.15;14.50;;;;;;;21.36;65.14;99905.13;5050305;28;20117;-85
2022/05/27 05:02:56;;;;;;;20.30;13.32;;;;;;;21.43;64.94;99905.81;5066997;28;20025;-85
2022/05/27 05:05:24;;;;;;;20.83;13.70;;;;;;;21.20;64.86;99879.00;5051581;28;20508;-85
2022/05/27 05:08:00;;;;;;;18.52;13.98;;;;;;;21.51;64.78;99912.66;5050463;28;20409;-85
2022/05/27 05:10:26;;;;;;;16.10;13.00;;;;;;;21.55;64.60;99905.75;5050463;28;20064;-85
2022/05/27 05:12:52;;;;;;;19.80;14.90;;;;;;;21.12;64.62;99836.41;5051269;28;20060;-85
2022/05/27 05:15:20;;;;;;;20.17;13.93;;;;;;;21.64;64.71;99907.03;5050748;28;20054;-85
2022/05/27 05:17:46;;;;;;;18.85;14.50;;;;;;;21.68;64.70;99905.47;5051930;28;20104;-85
2022/05/27 05:20:14;;;;;;;17.95;13.30;;;;;;;21.14;64.75;99810.97;5050599;28;20025;-85
2022/05/27 05:22:39;;;;;;;20.95;14.30;;;;;;;21.59;64.81;99896.19;5051674;28;20035;-85
2022/05/27 05:25:06;;;;;;;16.50;12.80;;;;;;;21.09;64.99;99797.44;5051440;28;20033;-85
2022/05/27 05:27:31;;;;;;;19.10;14.07;;;;;;;21.44;64.75;99842.13;5050342;28;20505;-85
2022/05/27 05:29:57;;;;;;;20.25;14.50;;;;;;;21.02;65.06;99767.25;5051649;28;20029;-85
2022/05/27 05:32:24;;;;;;;17.92;14.25;;;;;;;21.66;64.99;99856.53;5050995;28;20052;-85
2022/05/27 05:34:49;;;;;;;20.30;14.43;;;;;;;22.04;64.82;99906.94;5038615;28;20593;-85
2022/05/27 05:37:16;;;;;;;19.38;13.07;;;;;;;22.15;64.75;99903.34;5050092;28;20044;-85
2022/05/27 05:39:42;;;;;;;20.63;14.65;;;;;;;22.23;64.71;99907.50;5044266;28;20406;-85
2022/05/27 05:42:08;;;;;;;19.02;14.93;;;;;;;21.95;64.60;99849.22;5044072;28;20037;-86
2022/05/27 05:44:34;;;;;;;20.20;15.00;;;;;;;21.04;64.80;99705.25;5031463;28;20449;-86
2022/05/27 05:47:01;;;;;;;20.92;15.38;;;;;;;22.34;64.57;99911.19;5048971;28;20029;-86
2022/05/27 05:49:26;;;;;;;15.88;12.93;;;;;;;22.20;64.55;99895.34;5054105;28;20126;-86
2022/05/27 05:51:54;;;;;;;16.88;13.57;;;;;;;22.43;64.76;99915.91;5044671;28;20100;-87
2022/05/27 05:54:21;;;;;;;19.25;13.77;;;;;;;21.80;64.60;99812.16;5039001;28;20028;-87
2022/05/27 05:56:47;;;;;;;19.13;13.88;;;;;;;22.33;64.43;99886.16;5071741;28;20074;-86
2022/05/27 05:59:14;;;;;;;19.27;14.30;;;;;;;22.67;64.35;99919.22;5075473;28;20052;-86
2022/05/27 06:01:40;;;;;;;19.25;12.93;;;;;;;21.86;63.24;99778.91;5075775;28;20030;-86
2022/05/27 06:04:06;;;;;;;15.73;12.65;;;;;;;22.33;62.67;99867.31;5074556;28;20107;-86
2022/05/27 06:06:31;;;;;;;15.50;13.23;;;;;;;22.06;62.09;99789.19;5055475;28;20569;-85
2022/05/27 06:08:57;;;;;;;16.55;12.15;;;;;;;22.41;61.70;99858.84;5038007;28;20036;-85
2022/05/27 06:11:22;;;;;;;16.70;12.45;;;;;;;22.56;61.08;99860.91;5091084;28;20024;-85
2022/05/27 06:13:47;;;;;;;13.80;12.38;;;;;;;22.75;60.72;99866.81;5075681;28;20574;-85
2022/05/27 06:16:13;;;;;;;13.57;12.07;;;;;;;22.80;60.50;99881.19;5062708;28;20029;-86
2022/05/27 06:18:39;;;;;;;17.92;14.48;;;;;;;23.13;60.31;99909.91;5044930;28;20028;-86
2022/05/27 06:21:05;;;;;;;18.50;13.90;;;;;;;22.75;59.75;99850.66;5053640;28;20082;-86
2022/05/27 06:23:30;;;;;;;20.40;12.65;;;;;;;22.64;59.25;99825.50;5064943;28;20029;-86
2022/05/27 06:25:57;;;;;;;17.30;12.98;;;;;;;22.80;58.94;99851.56;5046064;28;20134;-85
2022/05/27 06:36:36;;;;;;;18.05;14.38;;;;;;;23.33;58.91;99885.06;5041316;28;20106;-85
2022/05/27 06:39:05;;;;;;;17.05;13.65;;;;;;;23.06;59.05;99824.97;5044275;28;20113;-87
2022/05/27 06:41:31;;;;;;;19.13;14.02;;;;;;;23.29;59.23;99848.09;5047554;28;20407;-84
2022/05/27 06:43:57;;;;;;;15.98;13.73;;;;;;;23.22;59.22;99810.59;5043373;28;20025;-86
2022/05/27 06:46:23;;;;;;;16.30;14.60;;;;;;;23.64;59.30;99869.22;5037348;28;20033;-84
2022/05/27 06:48:48;;;;;;;16.17;13.07;;;;;;;22.95;58.90;99739.72;5039534;28;20025;-85
2022/05/27 06:51:14;;;;;;;16.77;14.63;;;;;;;23.33;58.27;99779.97;5044228;28;20100;-85
2022/05/27 06:53:39;;;;;;;16.02;12.23;;;;;;;23.93;58.30;99885.97;5064243;28;20549;-84
2022/05/27 06:56:07;;;;;;;15.15;12.90;;;;;;;24.08;58.17;99889.59;5042274;28;20513;-86
2022/05/27 06:58:33;;;;;;;17.63;14.60;;;;;;;23.95;57.74;99854.16;5046676;28;20543;-86
2022/05/27 07:00:58;;;;;;;12.68;11.35;;;;;;;23.95;57.22;99846.88;5034042;28;20030;-84
2022/05/27 07:03:24;;;;;;;17.00;11.00;;;;;;;23.79;56.50;99818.16;5039488;28;20166;-84
2022/05/27 07:05:49;;;;;;;13.35;11.75;;;;;;;23.80;56.70;99817.09;5041342;28;20040;-84
2022/05/27 07:08:14;;;;;;;15.02;12.45;;;;;;;24.23;56.59;99866.50;5045229;28;20120;-84
2022/05/27 07:10:40;;;;;;;14.50;11.45;;;;;;;24.14;56.75;99846.47;5054097;28;20167;-85
2022/05/27 07:13:05;;;;;;;14.18;12.75;;;;;;;23.87;56.90;99782.63;5043301;28;20040;-84
2022/05/27 07:15:32;;;;;;;13.25;12.02;;;;;;;24.59;56.91;99881.88;5051741;28;20403;-85
2022/05/27 07:17:58;;;;;;;17.75;13.45;;;;;;;24.66;56.56;99874.38;5041479;28;20055;-84
2022/05/27 07:20:24;;;;;;;15.55;12.23;;;;;;;24.70;56.19;99869.25;5040158;28;20033;-84
2022/05/27 07:22:50;;;;;;;15.52;12.48;;;;;;;24.77;55.75;99877.13;5032800;28;20080;-85
2022/05/27 07:25:16;;;;;;;14.85;12.40;;;;;;;24.82;55.03;99886.06;5043991;28;20060;-84
2022/05/27 07:27:42;;;;;;;15.57;11.10;;;;;;;24.15;54.63;99762.56;5033249;28;20037;-84
2022/05/27 07:30:15;;;;;;;15.90;11.38;;;;;;;24.94;54.00;99864.22;5032027;28;20037;-84
2022/05/27 07:32:42;;;;;;;12.07;10.65;;;;;;;24.95;53.85;99868.53;5049953;28;20399;-84
2022/05/27 07:35:08;;;;;;;15.38;11.18;;;;;;;24.84;53.82;99834.47;5045434;28;20021;-87
2022/05/27 07:37:34;;;;;;;13.38;11.27;;;;;;;24.82;53.33;99833.91;5041032;28;20040;-86
2022/05/27 07:39:59;;;;;;;16.10;11.25;;;;;;;24.79;52.89;99832.56;5049571;28;20017;-86
2022/05/27 07:42:25;;;;;;;12.60;10.38;;;;;;;25.01;52.40;99837.81;5049557;28;20111;-86
2022/05/27 07:44:50;;;;;;;15.73;14.05;;;;;;;24.59;52.12;99779.28;5042290;28;20386;-86
2022/05/27 07:47:16;;;;;;;16.30;12.02;;;;;;;25.07;52.48;99835.94;5044893;28;20524;-86
2022/05/27 07:49:42;;;;;;;13.10;11.63;;;;;;;25.28;51.83;99864.66;5048321;28;20031;-86
2022/05/27 07:52:07;;;;;;;13.82;10.77;;;;;;;25.03;51.76;99797.81;5039830;28;20508;-86
2022/05/27 07:54:34;;;;;;;12.65;10.30;;;;;;;24.22;51.94;99686.78;5043287;28;20504;-86
2022/05/27 07:56:59;;;;;;;12.38;10.77;;;;;;;25.03;51.71;99787.81;5052294;28;20476;-87
2022/05/27 07:59:25;;;;;;;12.85;11.20;;;;;;;25.09;51.95;99785.13;5037521;28;20059;-86
2022/05/27 08:01:50;;;;;;;14.55;12.93;;;;;;;25.24;52.19;99801.38;5047628;28;20033;-87
2022/05/27 08:04:16;;;;;;;15.77;11.95;;;;;;;24.72;52.10;99707.78;5051623;28;20036;-86
2022/05/27 08:06:42;;;;;;;14.45;10.95;;;;;;;25.09;52.26;99758.94;5032197;28;20025;-87
2022/05/27 08:09:08;;;;;;;14.95;11.23;;;;;;;25.72;52.49;99854.19;5057142;28;20533;-88
2022/05/27 08:11:33;;;;;;;12.00;10.52;;;;;;;25.91;52.51;99863.41;5062845;28;20024;-85
2022/05/27 08:14:01;;;;;;;11.95;9.82;;;;;;;25.54;52.49;99808.72;5031342;28;20057;-86
2022/05/27 08:16:27;;;;;;;13.05;10.80;;;;;;;25.74;52.38;99808.75;5041333;28;20040;-85
2022/05/27 08:18:53;;;;;;;14.05;11.40;;;;;;;25.65;51.70;99780.59;5040003;28;20457;-85
2022/05/27 08:21:19;;;;;;;12.20;10.25;;;;;;;26.05;51.44;99835.81;5039912;28;20087;-86
2022/05/27 08:23:45;;;;;;;13.60;10.73;;;;;;;26.26;51.45;99846.34;5047003;28;20128;-85
2022/05/27 08:26:11;;;;;;;13.48;9.68;;;;;;;25.83;51.30;99765.75;5036687;28;20079;-85
2022/05/27 08:28:37;;;;;;;11.90;10.68;;;;;;;26.43;51.49;99848.75;5046376;28;20021;-87
2022/05/27 08:31:02;;;;;;;11.38;10.18;;;;;;;26.25;51.06;99812.22;5051946;28;20431;-85
2022/05/27 08:38:00;;;;;;;13.80;9.70;;;;;;;26.12;49.76;99755.16;5046516;28;20033;-85
2022/05/27 08:39:07;;;;;;;8.85;7.95;;;;;;;26.85;48.88;99834.00;5047318;28;20059;-84
2022/05/27 08:41:40;;;;;;;10.77;8.23;;;;;;;26.74;48.04;99808.84;5037867;28;20410;-85
2022/05/27 08:44:18;;;;;;;10.80;8.20;;;;;;;26.97;48.37;99825.56;5048159;28;20040;-84
2022/05/27 08:46:59;;;;;;;14.18;12.73;;;;;;;26.51;48.24;99749.91;5032592;28;20430;-84
2022/05/27 08:49:34;;;;;;;12.20;7.80;;;;;;;27.12;47.78;99818.19;5033929;28;20048;-84
2022/05/27 08:52:23;;;;;;;12.30;7.05;;;;;;;27.15;46.50;99792.41;5044826;28;20041;-86
2022/05/27 08:55:04;;;;;;;9.38;7.90;;;;;;;27.15;46.30;99778.84;5049840;28;20435;-86
2022/05/27 09:00:26;;;;;;;8.05;6.97;;;;;;;27.17;45.95;99755.78;5048961;28;20067;-86
2022/05/27 09:03:05;;;;;;;11.60;7.22;;;;;;;27.80;45.23;99826.41;5036958;28;20043;-85
2022/05/27 09:06:01;;;;;;;7.28;6.13;;;;;;;27.97;43.53;99822.47;5039047;28;20025;-85
2022/05/27 09:08:28;;;;;;;7.65;5.80;;;;;;;27.63;43.83;99754.66;5054711;28;20036;-86
2022/05/27 09:11:18;;;;;;;8.70;6.75;;;;;;;28.27;43.09;99814.06;5031013;28;20508;-86
2022/05/27 09:13:58;;;;;;;11.70;6.20;;;;;;;28.37;42.93;99810.44;5029868;28;20036;-85
2022/05/27 09:16:58;;;;;;;7.87;6.67;;;;;;;28.61;42.54;99808.50;5038314;28;20501;-86
2022/05/27 09:19:48;;;;;;;7.68;6.72;;;;;;;28.60;41.43;99789.78;5024538;28;20473;-84
2022/05/27 09:22:26;;;;;;;7.93;7.15;;;;;;;28.75;40.93;99774.09;5048641;28;20127;-85
2022/05/27 09:25:09;;;;;;;7.10;5.70;;;;;;;29.19;41.35;99802.06;5049149;28;20021;-85
2022/05/27 09:27:57;;;;;;;7.80;6.47;;;;;;;29.06;40.61;99760.13;5038469;28;20157;-84
2022/05/27 09:30:23;;;;;;;7.72;5.57;;;;;;;29.34;39.83;99783.63;5024595;28;20030;-85
2022/05/27 09:32:55;;;;;;;8.80;6.10;;;;;;;29.02;39.46;99699.28;5038958;28;20025;-86
2022/05/27 09:35:44;;;;;;;8.82;4.90;;;;;;;29.65;39.79;99788.59;5034701;28;20088;-84
2022/05/27 09:38:20;;;;;;;8.80;5.65;;;;;;;29.88;39.00;99790.38;5044860;28;20557;-83
2022/05/27 09:40:49;;;;;;;10.90;7.38;;;;;;;29.99;38.73;99791.00;5046105;28;20021;-86
2022/05/27 09:43:33;;;;;;;9.00;5.75;;;;;;;30.07;37.93;99765.84;5050272;28;20036;-84
2022/05/27 09:46:02;;;;;;;8.07;5.53;;;;;;;29.60;37.90;99671.66;5043813;28;20108;-85
2022/05/27 09:48:27;;;;;;;6.63;5.30;;;;;;;29.57;37.91;99656.75;5063526;28;20159;-84
2022/05/27 09:50:55;;;;;;;11.25;7.30;;;;;;;30.04;37.58;99695.63;5048784;28;20486;-84
2022/05/27 09:53:27;;;;;;;9.75;5.35;;;;;;;30.58;36.41;99743.03;5052465;28;20040;-86
2022/05/27 09:56:04;;;;;;;9.68;6.70;;;;;;;29.87;36.75;99603.66;5053471;28;20131;-85
2022/05/27 09:58:36;;;;;;;7.97;5.75;;;;;;;31.09;36.62;99761.00;5070079;28;20024;-84
2022/05/27 10:01:04;;;;;;;11.60;8.15;;;;;;;31.09;36.32;99709.97;5064365;28;20025;-85
2022/05/27 10:03:38;;;;;;;10.65;7.88;;;;;;;31.64;35.22;99768.97;5040282;28;20060;-85
2022/05/27 10:06:06;;;;;;;8.13;6.45;;;;;;;31.77;34.96;99754.47;5031794;28;20032;-85
2022/05/27 10:08:35;;;;;;;9.77;7.15;;;;;;;31.24;34.54;99678.84;5041030;28;20060;-85
2022/05/27 10:11:10;;;;;;;8.70;6.53;;;;;;;31.81;34.41;99748.06;5049188;28;20021;-84
2022/05/27 10:13:36;;;;;;;9.25;6.22;;;;;;;31.71;34.55;99699.19;5048970;28;20029;-84
2022/05/27 10:16:10;;;;;;;9.57;6.28;;;;;;;32.19;34.24;99736.69;5050385;28;20087;-85
2022/05/27 10:18:36;;;;;;;9.48;6.70;;;;;;;32.11;34.75;99712.88;5037209;28;20099;-84
2022/05/27 10:21:09;;;;;;;8.32;5.47;;;;;;;32.07;34.62;99704.50;5038701;28;20026;-84
2022/05/27 10:23:41;;;;;;;9.93;5.85;;;;;;;32.29;34.43;99716.50;5030596;28;20025;-84
2022/05/27 10:26:32;;;;;;;10.52;6.53;;;;;;;32.43;35.11;99717.97;5036910;28;20029;-84
2022/05/27 10:28:57;;;;;;;;;;;;;;;32.53;33.78;99711.38;5032374;28;20032;-85
2022/05/27 10:31:24;;;;;;;10.45;5.93;;;;;;;31.59;34.88;99568.72;5048014;28;19916;-84
2022/05/27 10:33:50;;;;;;;8.45;6.07;;;;;;;32.73;34.23;99716.25;5058452;28;20028;-84
2022/05/27 10:36:27;;;;;;;10.45;6.28;;;;;;;32.84;33.56;99701.16;5043630;28;20025;-83
2022/05/27 10:39:10;;;;;;;10.52;6.53;;;;;;;32.94;33.58;99694.56;5042342;28;20086;-85
2022/05/27 10:41:57;;;;;;;10.73;6.38;;;;;;;33.08;34.07;99694.41;5033136;28;20080;-84
2022/05/27 10:44:33;;;;;;;7.03;6.32;;;;;;;33.26;34.34;99701.44;5043595;28;20038;-83
2022/05/27 10:46:59;;;;;;;10.00;6.15;;;;;;;32.83;33.68;99650.34;5041160;28;20060;-85
2022/05/27 10:50:20;;;;;;;11.80;6.28;;;;;;;33.39;33.40;99700.47;5042404;28;20510;-85
2022/05/27 10:53:13;;;;;;;10.63;7.10;;;;;;;33.37;33.47;99691.78;5006747;28;20403;-84
2022/05/27 10:56:08;;;;;;;9.27;8.07;;;;;;;33.55;32.84;99703.53;5051142;28;20045;-84
2022/05/27 11:02:04;;;;;;;7.15;5.97;;;;;;;33.19;32.79;99676.50;5050408;28;20094;-84
2022/05/27 11:04:29;;;;;;;7.50;5.50;;;;;;;33.46;32.92;99706.28;5053216;28;20021;-84
2022/05/27 11:07:21;;;;;;;7.53;5.70;;;;;;;33.50;33.48;99664.56;5045137;28;20512;-84
2022/05/27 11:10:08;;;;;;;9.60;5.80;;;;;;;33.82;32.76;99694.13;5037006;28;20037;-83
2022/05/27 11:15:55;;;;;;;9.15;6.30;;;;;;;34.07;32.00;99686.91;5044932;28;20036;-84
2022/05/27 11:18:23;;;;;;;7.57;6.15;;;;;;;34.19;32.06;99686.19;5042728;28;20025;-84
2022/05/27 11:21:04;;;;;;;6.20;5.47;;;;;;;34.27;32.03;99694.38;5057480;28;20036;-84
2022/05/27 11:24:10;;;;;;;9.90;6.38;;;;;;;34.07;32.16;99640.31;5034496;28;20026;-84
2022/05/27 11:26:40;;;;;;;9.60;6.82;;;;;;;33.92;32.33;99606.06;5011629;28;20037;-84
2022/05/27 11:29:14;;;;;;;7.77;5.87;;;;;;;34.03;31.95;99626.47;5011629;28;20022;-84
2022/05/27 11:32:02;;;;;;;9.35;5.65;;;;;;;34.10;32.13;99689.78;5032528;28;20037;-83
2022/05/27 11:34:34;;;;;;;10.02;5.68;;;;;;;33.80;31.96;99685.41;5053140;28;20028;-84
2022/05/27 11:37:21;;;;;;;10.40;5.53;;;;;;;33.48;32.83;99682.13;5039609;28;20030;-84
2022/05/27 11:40:20;;;;;;;8.43;6.50;;;;;;;33.16;33.54;99690.84;5047433;28;20502;-84
2022/05/27 11:42:56;;;;;;;8.43;5.95;;;;;;;32.96;33.88;99680.56;5051854;28;20037;-84
2022/05/27 11:45:24;;;;;;;9.00;5.60;;;;;;;32.74;33.78;99682.31;5050811;28;20033;-84
2022/05/27 11:48:08;;;;;;;10.65;8.40;;;;;;;32.18;34.44;99636.72;5050938;28;20167;-84
2022/05/27 11:50:58;;;;;;;13.20;8.23;;;;;;;32.19;34.80;99677.38;5051969;28;20072;-84
2022/05/27 11:53:48;;;;;;;8.02;6.25;;;;;;;31.97;35.31;99680.22;5051164;28;20437;-84
2022/05/27 11:56:22;;;;;;;15.30;10.13;;;;;;;31.75;35.65;99680.25;5058499;28;20032;-84
2022/05/27 11:58:59;;;;;;;10.52;6.65;;;;;;;31.25;36.25;99615.00;5032856;28;20517;-84
2022/05/27 12:01:44;;;;;;;14.45;9.65;;;;;;;31.38;36.58;99674.13;5032322;28;20503;-84
2022/05/27 12:04:32;;;;;;;10.35;8.05;;;;;;;30.93;37.32;99613.31;5032055;28;20116;-84
2022/05/27 12:07:17;;;;;;;8.55;6.93;;;;;;;30.97;37.57;99660.66;5057466;28;20024;-84
2022/05/27 12:09:52;;;;;;;8.20;6.18;;;;;;;30.75;37.73;99652.47;5054305;28;20025;-84
2022/05/27 12:12:25;;;;;;;13.80;11.02;;;;;;;30.66;38.06;99645.03;5029337;28;20025;-84